sensor_id;sensor_type;location;lat;lon;timestamp;temperature;humidity
9209;DHT22;4639;48.862;9.188;2023-05-24T00:02:21;14.20;99.90
9209;DHT22;4639;48.862;9.188;2023-05-24T00:04:51;14.20;99.90
9209;DHT22;4639;48.862;9.188;2023-05-24T00:09:49;14.10;99.90
9209;DHT22;4639;48.862;9.188;2023-05-24T00:12:15;14.20;99.90
9209;DHT22;4639;48.862;9.188;2023-05-24T00:14:41;14.30;99.90
9209;DHT22;4639;48.862;9.188;2023-05-24T00:17:06;14.20;99.90
9209;DHT22;4639;48.862;9.188;2023-05-24T00:19:32;14.20;99.90
9209;DHT22;4639;48.862;9.188;2023-05-24T00:21:57;14.30;99.90
9209;DHT22;4639;48.862;9.188;2023-05-24T00:24:23;14.50;99.90
9209;DHT22;4639;48.862;9.188;2023-05-24T00:26:48;14.50;99.90
9209;DHT22;4639;48.862;9.188;2023-05-24T00:29:14;14.70;99.90
9209;DHT22;4639;48.862;9.188;2023-05-24T00:31:39;14.60;99.90
9209;DHT22;4639;48.862;9.188;2023-05-24T00:34:05;14.50;99.90
9209;DHT22;4639;48.862;9.188;2023-05-24T00:36:31;14.70;99.90
9209;DHT22;4639;48.862;9.188;2023-05-24T00:38:57;14.50;99.90
9209;DHT22;4639;48.862;9.188;2023-05-24T00:41:23;14.50;99.90
9209;DHT22;4639;48.862;9.188;2023-05-24T00:43:48;14.40;99.90
9209;DHT22;4639;48.862;9.188;2023-05-24T00:48:42;14.30;99.90
9209;DHT22;4639;48.862;9.188;2023-05-24T00:51:08;14.30;99.90
9209;DHT22;4639;48.862;9.188;2023-05-24T00:53:37;14.30;99.90
9209;DHT22;4639;48.862;9.188;2023-05-24T00:56:03;14.30;99.90
9209;DHT22;4639;48.862;9.188;2023-05-24T00:58:30;14.30;99.90
9209;DHT22;4639;48.862;9.188;2023-05-24T01:00:58;14.20;99.90
9209;DHT22;4639;48.862;9.188;2023-05-24T01:03:28;14.20;99.90
9209;DHT22;4639;48.862;9.188;2023-05-24T01:06:12;14.20;99.90
9209;DHT22;4639;48.862;9.188;2023-05-24T01:17:22;14.20;99.90
9209;DHT22;4639;48.862;9.188;2023-05-24T01:19:57;14.20;99.90
9209;DHT22;4639;48.862;9.188;2023-05-24T01:23:06;14.10;99.90
9209;DHT22;4639;48.862;9.188;2023-05-24T01:25:45;14.10;99.90
9209;DHT22;4639;48.862;9.188;2023-05-24T01:28:15;14.00;99.90
9209;DHT22;4639;48.862;9.188;2023-05-24T01:30:41;13.90;99.90
9209;DHT22;4639;48.862;9.188;2023-05-24T01:33:07;13.90;99.90
9209;DHT22;4639;48.862;9.188;2023-05-24T01:35:34;13.90;99.90
9209;DHT22;4639;48.862;9.188;2023-05-24T01:38:08;13.90;99.90
9209;DHT22;4639;48.862;9.188;2023-05-24T01:40:37;13.90;99.90
9209;DHT22;4639;48.862;9.188;2023-05-24T01:43:30;13.90;99.90
9209;DHT22;4639;48.862;9.188;2023-05-24T01:46:12;13.90;99.90
9209;DHT22;4639;48.862;9.188;2023-05-24T01:51:17;13.70;99.90
9209;DHT22;4639;48.862;9.188;2023-05-24T01:53:47;13.70;99.90
9209;DHT22;4639;48.862;9.188;2023-05-24T01:56:15;13.70;99.90
9209;DHT22;4639;48.862;9.188;2023-05-24T01:58:43;13.80;99.90
9209;DHT22;4639;48.862;9.188;2023-05-24T02:01:09;13.80;99.90
9209;DHT22;4639;48.862;9.188;2023-05-24T02:03:35;13.60;99.90
9209;DHT22;4639;48.862;9.188;2023-05-24T02:06:02;13.60;99.90
9209;DHT22;4639;48.862;9.188;2023-05-24T02:08:28;13.60;99.90
9209;DHT22;4639;48.862;9.188;2023-05-24T02:10:54;13.60;99.90
9209;DHT22;4639;48.862;9.188;2023-05-24T02:13:19;13.60;99.90
9209;DHT22;4639;48.862;9.188;2023-05-24T02:15:45;13.50;99.90
9209;DHT22;4639;48.862;9.188;2023-05-24T02:18:12;13.50;99.90
9209;DHT22;4639;48.862;9.188;2023-05-24T02:20:38;13.50;99.90
9209;DHT22;4639;48.862;9.188;2023-05-24T02:23:05;13.40;99.90
9209;DHT22;4639;48.862;9.188;2023-05-24T02:25:31;13.40;99.90
9209;DHT22;4639;48.862;9.188;2023-05-24T02:27:58;13.40;99.90
9209;DHT22;4639;48.862;9.188;2023-05-24T02:30:24;13.40;99.90
9209;DHT22;4639;48.862;9.188;2023-05-24T02:32:50;13.40;99.90
9209;DHT22;4639;48.862;9.188;2023-05-24T02:35:16;13.30;99.90
9209;DHT22;4639;48.862;9.188;2023-05-24T02:37:41;13.30;99.90
9209;DHT22;4639;48.862;9.188;2023-05-24T02:40:08;13.40;99.90
9209;DHT22;4639;48.862;9.188;2023-05-24T02:42:33;13.40;99.90
9209;DHT22;4639;48.862;9.188;2023-05-24T02:44:59;13.30;99.90
9209;DHT22;4639;48.862;9.188;2023-05-24T02:47:25;13.30;99.90
9209;DHT22;4639;48.862;9.188;2023-05-24T02:49:54;13.30;99.90
9209;DHT22;4639;48.862;9.188;2023-05-24T02:52:20;13.40;99.90
9209;DHT22;4639;48.862;9.188;2023-05-24T02:54:47;13.40;99.90
9209;DHT22;4639;48.862;9.188;2023-05-24T02:57:13;13.40;99.90
9209;DHT22;4639;48.862;9.188;2023-05-24T02:59:39;13.60;99.90
9209;DHT22;4639;48.862;9.188;2023-05-24T03:02:04;13.40;99.90
9209;DHT22;4639;48.862;9.188;2023-05-24T03:04:30;13.30;99.90
9209;DHT22;4639;48.862;9.188;2023-05-24T03:06:55;13.20;99.90
9209;DHT22;4639;48.862;9.188;2023-05-24T03:09:21;13.10;99.90
9209;DHT22;4639;48.862;9.188;2023-05-24T03:11:46;13.10;99.90
9209;DHT22;4639;48.862;9.188;2023-05-24T03:14:12;13.10;99.90
9209;DHT22;4639;48.862;9.188;2023-05-24T03:16:38;13.10;99.90
9209;DHT22;4639;48.862;9.188;2023-05-24T03:19:03;13.10;99.90
9209;DHT22;4639;48.862;9.188;2023-05-24T03:21:30;13.00;99.90
9209;DHT22;4639;48.862;9.188;2023-05-24T03:23:56;13.00;99.90
9209;DHT22;4639;48.862;9.188;2023-05-24T03:26:22;13.00;99.90
9209;DHT22;4639;48.862;9.188;2023-05-24T03:28:48;13.00;99.90
9209;DHT22;4639;48.862;9.188;2023-05-24T03:31:15;13.00;99.90
9209;DHT22;4639;48.862;9.188;2023-05-24T03:33:41;13.00;99.90
9209;DHT22;4639;48.862;9.188;2023-05-24T03:36:06;13.00;99.90
9209;DHT22;4639;48.862;9.188;2023-05-24T03:38:32;12.80;99.90
9209;DHT22;4639;48.862;9.188;2023-05-24T03:40:58;12.80;99.90
9209;DHT22;4639;48.862;9.188;2023-05-24T03:43:24;12.70;99.90
9209;DHT22;4639;48.862;9.188;2023-05-24T03:45:50;12.70;99.90
9209;DHT22;4639;48.862;9.188;2023-05-24T03:48:15;12.70;99.90
9209;DHT22;4639;48.862;9.188;2023-05-24T03:50:41;12.70;99.90
9209;DHT22;4639;48.862;9.188;2023-05-24T03:53:07;12.90;99.90
9209;DHT22;4639;48.862;9.188;2023-05-24T03:55:32;12.70;99.90
9209;DHT22;4639;48.862;9.188;2023-05-24T03:57:58;12.80;99.90
9209;DHT22;4639;48.862;9.188;2023-05-24T04:00:24;12.80;99.90
9209;DHT22;4639;48.862;9.188;2023-05-24T04:02:49;13.10;99.90
9209;DHT22;4639;48.862;9.188;2023-05-24T04:05:15;12.80;99.90
9209;DHT22;4639;48.862;9.188;2023-05-24T04:07:41;12.90;99.90
9209;DHT22;4639;48.862;9.188;2023-05-24T04:10:08;12.80;99.90
9209;DHT22;4639;48.862;9.188;2023-05-24T04:12:34;12.70;99.90
9209;DHT22;4639;48.862;9.188;2023-05-24T04:15:00;12.70;99.90
9209;DHT22;4639;48.862;9.188;2023-05-24T04:17:26;12.70;99.90
9209;DHT22;4639;48.862;9.188;2023-05-24T04:19:53;12.80;99.90
9209;DHT22;4639;48.862;9.188;2023-05-24T04:22:19;12.70;99.90
9209;DHT22;4639;48.862;9.188;2023-05-24T04:24:44;12.70;99.90
9209;DHT22;4639;48.862;9.188;2023-05-24T04:27:11;12.70;99.90
9209;DHT22;4639;48.862;9.188;2023-05-24T04:29:38;12.70;99.90
9209;DHT22;4639;48.862;9.188;2023-05-24T04:32:05;12.70;99.90
9209;DHT22;4639;48.862;9.188;2023-05-24T04:34:31;12.70;99.90
9209;DHT22;4639;48.862;9.188;2023-05-24T04:37:00;12.70;99.90
9209;DHT22;4639;48.862;9.188;2023-05-24T04:39:26;12.70;99.90
9209;DHT22;4639;48.862;9.188;2023-05-24T04:41:52;12.60;99.90
9209;DHT22;4639;48.862;9.188;2023-05-24T04:44:19;12.60;99.90
9209;DHT22;4639;48.862;9.188;2023-05-24T04:46:45;12.60;99.90
9209;DHT22;4639;48.862;9.188;2023-05-24T04:49:10;12.60;99.90
9209;DHT22;4639;48.862;9.188;2023-05-24T04:51:37;12.60;99.90
9209;DHT22;4639;48.862;9.188;2023-05-24T04:54:06;12.60;99.90
9209;DHT22;4639;48.862;9.188;2023-05-24T04:56:33;12.50;99.90
9209;DHT22;4639;48.862;9.188;2023-05-24T04:59:00;12.50;99.90
9209;DHT22;4639;48.862;9.188;2023-05-24T05:01:26;12.40;99.90
9209;DHT22;4639;48.862;9.188;2023-05-24T05:03:51;12.40;99.90
9209;DHT22;4639;48.862;9.188;2023-05-24T05:06:17;12.50;99.90
9209;DHT22;4639;48.862;9.188;2023-05-24T05:08:42;12.50;99.90
9209;DHT22;4639;48.862;9.188;2023-05-24T05:11:08;12.60;99.90
9209;DHT22;4639;48.862;9.188;2023-05-24T05:13:34;12.60;99.90
9209;DHT22;4639;48.862;9.188;2023-05-24T05:16:00;12.60;99.90
9209;DHT22;4639;48.862;9.188;2023-05-24T05:18:26;12.50;99.90
9209;DHT22;4639;48.862;9.188;2023-05-24T05:20:51;12.50;99.90
9209;DHT22;4639;48.862;9.188;2023-05-24T05:23:17;12.50;99.90
9209;DHT22;4639;48.862;9.188;2023-05-24T05:25:43;12.60;99.90
9209;DHT22;4639;48.862;9.188;2023-05-24T05:28:08;12.40;99.90
9209;DHT22;4639;48.862;9.188;2023-05-24T05:30:34;12.40;99.90
9209;DHT22;4639;48.862;9.188;2023-05-24T05:32:59;12.50;99.90
9209;DHT22;4639;48.862;9.188;2023-05-24T05:35:25;12.70;99.90
9209;DHT22;4639;48.862;9.188;2023-05-24T05:37:51;12.60;99.90
9209;DHT22;4639;48.862;9.188;2023-05-24T05:40:16;12.60;99.90
9209;DHT22;4639;48.862;9.188;2023-05-24T05:42:42;12.70;99.90
9209;DHT22;4639;48.862;9.188;2023-05-24T05:45:08;12.70;99.90
9209;DHT22;4639;48.862;9.188;2023-05-24T05:47:33;12.70;99.90
9209;DHT22;4639;48.862;9.188;2023-05-24T05:49:59;12.70;99.90
9209;DHT22;4639;48.862;9.188;2023-05-24T05:52:25;12.70;99.90
9209;DHT22;4639;48.862;9.188;2023-05-24T05:54:50;12.80;99.90
9209;DHT22;4639;48.862;9.188;2023-05-24T05:57:16;12.80;99.90
9209;DHT22;4639;48.862;9.188;2023-05-24T05:59:43;12.90;99.90
9209;DHT22;4639;48.862;9.188;2023-05-24T06:02:09;12.90;99.90
9209;DHT22;4639;48.862;9.188;2023-05-24T06:04:37;12.90;99.90
9209;DHT22;4639;48.862;9.188;2023-05-24T06:07:03;13.00;99.90
9209;DHT22;4639;48.862;9.188;2023-05-24T06:09:28;13.00;99.90
9209;DHT22;4639;48.862;9.188;2023-05-24T06:11:54;12.90;99.90
9209;DHT22;4639;48.862;9.188;2023-05-24T06:14:20;13.00;99.90
9209;DHT22;4639;48.862;9.188;2023-05-24T06:16:46;13.00;99.90
9209;DHT22;4639;48.862;9.188;2023-05-24T06:19:12;13.00;99.90
9209;DHT22;4639;48.862;9.188;2023-05-24T06:21:38;13.00;99.90
9209;DHT22;4639;48.862;9.188;2023-05-24T06:24:06;13.00;99.90
9209;DHT22;4639;48.862;9.188;2023-05-24T06:26:35;13.10;99.90
9209;DHT22;4639;48.862;9.188;2023-05-24T06:29:01;12.90;99.90
9209;DHT22;4639;48.862;9.188;2023-05-24T06:31:26;13.00;99.90
9209;DHT22;4639;48.862;9.188;2023-05-24T06:33:52;12.90;99.90
9209;DHT22;4639;48.862;9.188;2023-05-24T06:36:17;12.90;99.90
9209;DHT22;4639;48.862;9.188;2023-05-24T06:38:43;12.90;99.90
9209;DHT22;4639;48.862;9.188;2023-05-24T06:41:08;12.90;99.90
9209;DHT22;4639;48.862;9.188;2023-05-24T06:43:34;12.90;99.90
9209;DHT22;4639;48.862;9.188;2023-05-24T06:46:00;12.80;99.90
9209;DHT22;4639;48.862;9.188;2023-05-24T06:48:25;12.90;99.90
9209;DHT22;4639;48.862;9.188;2023-05-24T06:50:51;12.90;99.90
9209;DHT22;4639;48.862;9.188;2023-05-24T06:53:17;12.90;99.90
9209;DHT22;4639;48.862;9.188;2023-05-24T06:55:42;12.90;99.90
9209;DHT22;4639;48.862;9.188;2023-05-24T06:58:08;13.00;99.90
9209;DHT22;4639;48.862;9.188;2023-05-24T07:00:41;13.00;99.90
9209;DHT22;4639;48.862;9.188;2023-05-24T07:03:08;13.00;99.90
9209;DHT22;4639;48.862;9.188;2023-05-24T07:05:34;12.90;99.90
9209;DHT22;4639;48.862;9.188;2023-05-24T07:08:00;12.80;99.90
9209;DHT22;4639;48.862;9.188;2023-05-24T07:10:26;12.80;99.90
9209;DHT22;4639;48.862;9.188;2023-05-24T07:12:51;12.80;99.90
9209;DHT22;4639;48.862;9.188;2023-05-24T07:15:17;12.80;99.90
9209;DHT22;4639;48.862;9.188;2023-05-24T07:17:43;12.90;99.90
9209;DHT22;4639;48.862;9.188;2023-05-24T07:20:09;13.00;99.90
9209;DHT22;4639;48.862;9.188;2023-05-24T07:22:35;13.00;99.90
9209;DHT22;4639;48.862;9.188;2023-05-24T07:25:01;12.90;99.90
9209;DHT22;4639;48.862;9.188;2023-05-24T07:27:27;13.00;99.90
9209;DHT22;4639;48.862;9.188;2023-05-24T07:29:53;13.10;99.90
9209;DHT22;4639;48.862;9.188;2023-05-24T07:32:18;13.20;99.90
9209;DHT22;4639;48.862;9.188;2023-05-24T07:34:44;13.30;99.90
9209;DHT22;4639;48.862;9.188;2023-05-24T07:37:10;13.20;99.90
9209;DHT22;4639;48.862;9.188;2023-05-24T07:39:36;13.30;99.90
9209;DHT22;4639;48.862;9.188;2023-05-24T07:42:02;13.20;99.90
9209;DHT22;4639;48.862;9.188;2023-05-24T07:44:28;13.40;99.90
9209;DHT22;4639;48.862;9.188;2023-05-24T07:46:54;13.20;99.90
9209;DHT22;4639;48.862;9.188;2023-05-24T07:49:19;13.30;99.90
9209;DHT22;4639;48.862;9.188;2023-05-24T07:51:46;13.50;99.90
9209;DHT22;4639;48.862;9.188;2023-05-24T07:54:12;13.60;99.90
9209;DHT22;4639;48.862;9.188;2023-05-24T07:56:39;13.60;99.90
9209;DHT22;4639;48.862;9.188;2023-05-24T07:59:05;13.60;99.90
9209;DHT22;4639;48.862;9.188;2023-05-24T08:01:31;13.60;99.90
9209;DHT22;4639;48.862;9.188;2023-05-24T08:03:59;13.50;99.90
9209;DHT22;4639;48.862;9.188;2023-05-24T08:06:24;13.60;99.90
9209;DHT22;4639;48.862;9.188;2023-05-24T08:08:50;13.50;99.90
9209;DHT22;4639;48.862;9.188;2023-05-24T08:11:16;13.70;99.90
9209;DHT22;4639;48.862;9.188;2023-05-24T08:13:43;13.50;99.90
9209;DHT22;4639;48.862;9.188;2023-05-24T08:16:08;13.50;99.90
9209;DHT22;4639;48.862;9.188;2023-05-24T08:18:34;13.40;99.90
9209;DHT22;4639;48.862;9.188;2023-05-24T08:20:59;13.40;99.90
9209;DHT22;4639;48.862;9.188;2023-05-24T08:23:25;13.40;99.90
9209;DHT22;4639;48.862;9.188;2023-05-24T08:25:51;13.30;99.90
9209;DHT22;4639;48.862;9.188;2023-05-24T08:28:17;13.30;99.90
9209;DHT22;4639;48.862;9.188;2023-05-24T08:30:43;13.50;99.90
9209;DHT22;4639;48.862;9.188;2023-05-24T08:33:09;13.50;99.90
9209;DHT22;4639;48.862;9.188;2023-05-24T08:35:34;13.50;99.90
9209;DHT22;4639;48.862;9.188;2023-05-24T08:38:00;13.60;99.90
9209;DHT22;4639;48.862;9.188;2023-05-24T08:40:26;13.80;99.90
9209;DHT22;4639;48.862;9.188;2023-05-24T08:42:52;13.70;99.90
9209;DHT22;4639;48.862;9.188;2023-05-24T08:45:21;13.80;99.90
9209;DHT22;4639;48.862;9.188;2023-05-24T08:47:49;13.90;99.90
9209;DHT22;4639;48.862;9.188;2023-05-24T08:50:16;14.00;99.90
9209;DHT22;4639;48.862;9.188;2023-05-24T08:52:42;14.00;99.90
9209;DHT22;4639;48.862;9.188;2023-05-24T08:55:10;14.10;99.90
9209;DHT22;4639;48.862;9.188;2023-05-24T08:57:36;14.10;99.90
9209;DHT22;4639;48.862;9.188;2023-05-24T09:00:09;14.10;99.90
9209;DHT22;4639;48.862;9.188;2023-05-24T09:02:37;14.00;99.90
9209;DHT22;4639;48.862;9.188;2023-05-24T09:05:03;13.90;99.90
9209;DHT22;4639;48.862;9.188;2023-05-24T09:07:31;13.80;99.90
9209;DHT22;4639;48.862;9.188;2023-05-24T09:10:03;13.60;99.90
9209;DHT22;4639;48.862;9.188;2023-05-24T09:12:30;13.60;99.90
9209;DHT22;4639;48.862;9.188;2023-05-24T09:14:57;13.60;99.90
9209;DHT22;4639;48.862;9.188;2023-05-24T09:17:23;13.60;99.90
9209;DHT22;4639;48.862;9.188;2023-05-24T09:19:50;13.60;99.90
9209;DHT22;4639;48.862;9.188;2023-05-24T09:22:16;13.70;99.90
9209;DHT22;4639;48.862;9.188;2023-05-24T09:24:48;13.90;99.90
9209;DHT22;4639;48.862;9.188;2023-05-24T09:27:18;13.90;99.90
9209;DHT22;4639;48.862;9.188;2023-05-24T09:29:48;14.00;99.90
9209;DHT22;4639;48.862;9.188;2023-05-24T09:32:17;14.00;99.90
9209;DHT22;4639;48.862;9.188;2023-05-24T09:34:44;14.00;99.90
9209;DHT22;4639;48.862;9.188;2023-05-24T09:37:21;14.00;99.90
9209;DHT22;4639;48.862;9.188;2023-05-24T09:39:48;14.00;99.90
9209;DHT22;4639;48.862;9.188;2023-05-24T09:42:20;14.00;99.90
9209;DHT22;4639;48.862;9.188;2023-05-24T09:45:00;14.00;99.90
9209;DHT22;4639;48.862;9.188;2023-05-24T09:47:30;13.90;99.90
9209;DHT22;4639;48.862;9.188;2023-05-24T09:49:56;13.90;99.90
9209;DHT22;4639;48.862;9.188;2023-05-24T09:52:21;14.00;99.90
9209;DHT22;4639;48.862;9.188;2023-05-24T09:54:47;14.00;99.90
9209;DHT22;4639;48.862;9.188;2023-05-24T09:57:15;14.00;99.90
9209;DHT22;4639;48.862;9.188;2023-05-24T09:59:42;14.00;99.90
9209;DHT22;4639;48.862;9.188;2023-05-24T10:02:11;14.00;99.90
9209;DHT22;4639;48.862;9.188;2023-05-24T10:04:38;13.90;99.90
9209;DHT22;4639;48.862;9.188;2023-05-24T10:07:05;13.80;99.90
9209;DHT22;4639;48.862;9.188;2023-05-24T10:09:32;13.90;99.90
9209;DHT22;4639;48.862;9.188;2023-05-24T10:12:03;13.90;99.90
9209;DHT22;4639;48.862;9.188;2023-05-24T10:14:37;13.90;99.90
9209;DHT22;4639;48.862;9.188;2023-05-24T10:17:06;13.90;99.90
9209;DHT22;4639;48.862;9.188;2023-05-24T10:19:33;13.80;99.90
9209;DHT22;4639;48.862;9.188;2023-05-24T10:22:00;13.80;99.90
9209;DHT22;4639;48.862;9.188;2023-05-24T10:24:46;13.90;99.90
9209;DHT22;4639;48.862;9.188;2023-05-24T10:32:30;14.10;99.90
9209;DHT22;4639;48.862;9.188;2023-05-24T10:34:58;14.20;99.90
9209;DHT22;4639;48.862;9.188;2023-05-24T10:37:24;14.10;99.90
9209;DHT22;4639;48.862;9.188;2023-05-24T10:39:51;14.10;99.90
9209;DHT22;4639;48.862;9.188;2023-05-24T10:42:17;14.10;99.90
9209;DHT22;4639;48.862;9.188;2023-05-24T10:44:43;14.20;99.90
9209;DHT22;4639;48.862;9.188;2023-05-24T10:47:12;14.30;99.90
9209;DHT22;4639;48.862;9.188;2023-05-24T10:49:50;14.20;99.90
9209;DHT22;4639;48.862;9.188;2023-05-24T10:52:16;14.30;99.90
9209;DHT22;4639;48.862;9.188;2023-05-24T10:55:05;14.30;99.90
9209;DHT22;4639;48.862;9.188;2023-05-24T10:57:32;14.40;99.90
9209;DHT22;4639;48.862;9.188;2023-05-24T11:05:31;14.70;99.90
9209;DHT22;4639;48.862;9.188;2023-05-24T11:07:59;14.80;99.90
9209;DHT22;4639;48.862;9.188;2023-05-24T11:10:34;15.00;99.90
9209;DHT22;4639;48.862;9.188;2023-05-24T11:13:00;15.10;99.90
9209;DHT22;4639;48.862;9.188;2023-05-24T11:15:28;15.10;99.90
9209;DHT22;4639;48.862;9.188;2023-05-24T11:20:37;15.40;99.90
9209;DHT22;4639;48.862;9.188;2023-05-24T11:23:03;15.50;99.90
9209;DHT22;4639;48.862;9.188;2023-05-24T11:25:29;15.60;99.90
9209;DHT22;4639;48.862;9.188;2023-05-24T11:27:57;15.70;99.90
9209;DHT22;4639;48.862;9.188;2023-05-24T11:30:23;15.80;99.90
9209;DHT22;4639;48.862;9.188;2023-05-24T11:32:49;16.00;99.90
9209;DHT22;4639;48.862;9.188;2023-05-24T11:35:15;16.10;99.90
9209;DHT22;4639;48.862;9.188;2023-05-24T11:37:43;16.40;99.90
9209;DHT22;4639;48.862;9.188;2023-05-24T11:40:10;16.80;99.90
9209;DHT22;4639;48.862;9.188;2023-05-24T11:42:36;17.20;99.90
9209;DHT22;4639;48.862;9.188;2023-05-24T11:45:03;17.40;99.90
9209;DHT22;4639;48.862;9.188;2023-05-24T11:47:49;17.50;99.90
9209;DHT22;4639;48.862;9.188;2023-05-24T11:50:15;17.40;99.90
9209;DHT22;4639;48.862;9.188;2023-05-24T11:52:41;17.50;99.90
9209;DHT22;4639;48.862;9.188;2023-05-24T11:55:09;17.70;99.90
9209;DHT22;4639;48.862;9.188;2023-05-24T11:57:37;17.90;99.90
9209;DHT22;4639;48.862;9.188;2023-05-24T12:00:05;18.00;99.90
9209;DHT22;4639;48.862;9.188;2023-05-24T12:02:35;18.00;99.90
9209;DHT22;4639;48.862;9.188;2023-05-24T12:05:07;17.90;99.90
9209;DHT22;4639;48.862;9.188;2023-05-24T12:07:34;17.70;99.90
9209;DHT22;4639;48.862;9.188;2023-05-24T12:10:01;17.80;99.90
9209;DHT22;4639;48.862;9.188;2023-05-24T12:12:27;17.90;99.90
9209;DHT22;4639;48.862;9.188;2023-05-24T12:14:55;18.10;99.90
9209;DHT22;4639;48.862;9.188;2023-05-24T12:17:21;18.30;99.90
9209;DHT22;4639;48.862;9.188;2023-05-24T12:19:50;18.50;99.90
9209;DHT22;4639;48.862;9.188;2023-05-24T12:22:16;18.50;99.90
9209;DHT22;4639;48.862;9.188;2023-05-24T12:24:42;18.20;99.90
9209;DHT22;4639;48.862;9.188;2023-05-24T12:27:08;18.00;99.90
9209;DHT22;4639;48.862;9.188;2023-05-24T12:29:36;18.00;99.90
9209;DHT22;4639;48.862;9.188;2023-05-24T12:32:03;18.30;99.90
9209;DHT22;4639;48.862;9.188;2023-05-24T12:34:28;18.70;99.90
9209;DHT22;4639;48.862;9.188;2023-05-24T12:36:55;19.00;99.90
9209;DHT22;4639;48.862;9.188;2023-05-24T12:39:22;19.00;99.90
9209;DHT22;4639;48.862;9.188;2023-05-24T12:41:53;19.10;99.90
9209;DHT22;4639;48.862;9.188;2023-05-24T12:44:30;19.30;99.90
9209;DHT22;4639;48.862;9.188;2023-05-24T12:46:57;19.30;99.90
9209;DHT22;4639;48.862;9.188;2023-05-24T12:49:24;19.40;99.90
9209;DHT22;4639;48.862;9.188;2023-05-24T12:51:50;19.60;99.90
9209;DHT22;4639;48.862;9.188;2023-05-24T12:54:23;19.90;99.90
9209;DHT22;4639;48.862;9.188;2023-05-24T12:56:49;20.00;99.90
9209;DHT22;4639;48.862;9.188;2023-05-24T12:59:15;19.70;99.90
9209;DHT22;4639;48.862;9.188;2023-05-24T13:01:41;19.30;99.90
9209;DHT22;4639;48.862;9.188;2023-05-24T13:04:07;19.00;99.90
9209;DHT22;4639;48.862;9.188;2023-05-24T13:06:35;18.90;99.90
9209;DHT22;4639;48.862;9.188;2023-05-24T13:09:02;18.70;99.90
9209;DHT22;4639;48.862;9.188;2023-05-24T13:11:27;18.90;99.90
9209;DHT22;4639;48.862;9.188;2023-05-24T13:13:55;19.00;99.90
9209;DHT22;4639;48.862;9.188;2023-05-24T13:16:22;19.30;99.90
9209;DHT22;4639;48.862;9.188;2023-05-24T13:18:49;19.60;99.90
9209;DHT22;4639;48.862;9.188;2023-05-24T13:21:14;19.90;99.90
9209;DHT22;4639;48.862;9.188;2023-05-24T13:23:41;20.30;99.90
9209;DHT22;4639;48.862;9.188;2023-05-24T13:26:07;20.10;99.90
9209;DHT22;4639;48.862;9.188;2023-05-24T13:28:33;19.80;99.90
9209;DHT22;4639;48.862;9.188;2023-05-24T13:31:00;19.70;99.90
9209;DHT22;4639;48.862;9.188;2023-05-24T13:33:25;19.60;99.90
9209;DHT22;4639;48.862;9.188;2023-05-24T13:35:52;19.70;99.90
9209;DHT22;4639;48.862;9.188;2023-05-24T13:38:19;19.70;99.90
9209;DHT22;4639;48.862;9.188;2023-05-24T13:40:45;20.00;99.90
9209;DHT22;4639;48.862;9.188;2023-05-24T13:43:11;20.00;99.90
9209;DHT22;4639;48.862;9.188;2023-05-24T13:45:36;20.00;99.90
9209;DHT22;4639;48.862;9.188;2023-05-24T13:48:02;20.10;99.90
9209;DHT22;4639;48.862;9.188;2023-05-24T13:50:37;20.20;99.90
9209;DHT22;4639;48.862;9.188;2023-05-24T13:53:04;20.40;99.90
9209;DHT22;4639;48.862;9.188;2023-05-24T13:55:31;20.40;99.90
9209;DHT22;4639;48.862;9.188;2023-05-24T13:57:58;20.30;99.90
9209;DHT22;4639;48.862;9.188;2023-05-24T14:00:26;20.20;99.90
9209;DHT22;4639;48.862;9.188;2023-05-24T14:02:51;20.10;99.90
9209;DHT22;4639;48.862;9.188;2023-05-24T14:05:18;20.20;99.90
9209;DHT22;4639;48.862;9.188;2023-05-24T14:07:44;20.30;99.90
9209;DHT22;4639;48.862;9.188;2023-05-24T14:10:10;20.40;99.90
9209;DHT22;4639;48.862;9.188;2023-05-24T14:12:36;20.50;99.90
9209;DHT22;4639;48.862;9.188;2023-05-24T14:15:01;20.70;99.90
9209;DHT22;4639;48.862;9.188;2023-05-24T14:17:29;20.90;99.90
9209;DHT22;4639;48.862;9.188;2023-05-24T14:19:55;21.00;99.90
9209;DHT22;4639;48.862;9.188;2023-05-24T14:22:20;21.10;99.90
9209;DHT22;4639;48.862;9.188;2023-05-24T14:24:47;21.40;99.90
9209;DHT22;4639;48.862;9.188;2023-05-24T14:27:12;21.60;99.90
9209;DHT22;4639;48.862;9.188;2023-05-24T14:29:38;21.60;99.90
9209;DHT22;4639;48.862;9.188;2023-05-24T14:32:04;21.50;99.90
9209;DHT22;4639;48.862;9.188;2023-05-24T14:34:29;21.40;99.90
9209;DHT22;4639;48.862;9.188;2023-05-24T14:36:55;21.40;99.90
9209;DHT22;4639;48.862;9.188;2023-05-24T14:39:20;21.50;99.90
9209;DHT22;4639;48.862;9.188;2023-05-24T14:41:46;21.60;99.90
9209;DHT22;4639;48.862;9.188;2023-05-24T14:44:12;21.60;99.90
9209;DHT22;4639;48.862;9.188;2023-05-24T14:46:39;21.50;99.90
9209;DHT22;4639;48.862;9.188;2023-05-24T14:49:04;21.80;99.90
9209;DHT22;4639;48.862;9.188;2023-05-24T14:51:30;21.60;99.90
9209;DHT22;4639;48.862;9.188;2023-05-24T14:53:56;21.90;99.90
9209;DHT22;4639;48.862;9.188;2023-05-24T14:56:22;21.70;99.90
9209;DHT22;4639;48.862;9.188;2023-05-24T14:58:48;21.80;99.90
9209;DHT22;4639;48.862;9.188;2023-05-24T15:01:13;22.20;99.90
9209;DHT22;4639;48.862;9.188;2023-05-24T15:03:41;22.30;99.90
9209;DHT22;4639;48.862;9.188;2023-05-24T15:06:07;22.50;99.90
9209;DHT22;4639;48.862;9.188;2023-05-24T15:08:33;22.30;99.90
9209;DHT22;4639;48.862;9.188;2023-05-24T15:10:59;22.40;99.90
9209;DHT22;4639;48.862;9.188;2023-05-24T15:13:25;22.30;99.90
9209;DHT22;4639;48.862;9.188;2023-05-24T15:15:50;22.10;99.90
9209;DHT22;4639;48.862;9.188;2023-05-24T15:18:18;21.90;99.90
9209;DHT22;4639;48.862;9.188;2023-05-24T15:20:43;21.80;99.90
9209;DHT22;4639;48.862;9.188;2023-05-24T15:23:09;21.90;99.90
9209;DHT22;4639;48.862;9.188;2023-05-24T15:25:35;22.10;99.90
9209;DHT22;4639;48.862;9.188;2023-05-24T15:28:01;21.80;99.90
9209;DHT22;4639;48.862;9.188;2023-05-24T15:30:27;21.50;99.90
9209;DHT22;4639;48.862;9.188;2023-05-24T15:32:53;21.20;99.90
9209;DHT22;4639;48.862;9.188;2023-05-24T15:35:18;21.20;99.90
9209;DHT22;4639;48.862;9.188;2023-05-24T15:37:44;21.20;99.90
9209;DHT22;4639;48.862;9.188;2023-05-24T15:40:10;21.30;99.90
9209;DHT22;4639;48.862;9.188;2023-05-24T15:42:37;21.50;99.90
9209;DHT22;4639;48.862;9.188;2023-05-24T15:45:03;21.90;99.90
9209;DHT22;4639;48.862;9.188;2023-05-24T15:47:28;22.20;99.90
9209;DHT22;4639;48.862;9.188;2023-05-24T15:50:00;22.60;99.90
9209;DHT22;4639;48.862;9.188;2023-05-24T15:52:26;22.30;99.90
9209;DHT22;4639;48.862;9.188;2023-05-24T15:54:52;22.40;99.90
9209;DHT22;4639;48.862;9.188;2023-05-24T15:57:17;22.30;99.90
9209;DHT22;4639;48.862;9.188;2023-05-24T15:59:43;22.60;99.90
9209;DHT22;4639;48.862;9.188;2023-05-24T16:02:08;22.50;99.90
9209;DHT22;4639;48.862;9.188;2023-05-24T16:04:34;22.60;99.90
9209;DHT22;4639;48.862;9.188;2023-05-24T16:06:59;22.50;99.90
9209;DHT22;4639;48.862;9.188;2023-05-24T16:09:25;22.40;99.90
9209;DHT22;4639;48.862;9.188;2023-05-24T16:11:50;22.60;99.90
9209;DHT22;4639;48.862;9.188;2023-05-24T16:14:16;22.50;99.90
9209;DHT22;4639;48.862;9.188;2023-05-24T16:16:44;22.60;99.90
9209;DHT22;4639;48.862;9.188;2023-05-24T16:19:10;22.90;99.90
9209;DHT22;4639;48.862;9.188;2023-05-24T16:21:36;23.10;99.70
9209;DHT22;4639;48.862;9.188;2023-05-24T16:24:02;23.10;99.90
9209;DHT22;4639;48.862;9.188;2023-05-24T16:26:29;23.10;99.80
9209;DHT22;4639;48.862;9.188;2023-05-24T16:28:55;22.80;99.90
9209;DHT22;4639;48.862;9.188;2023-05-24T16:31:21;22.70;99.80